Time;durP1;ratioP1;P1;durP2;ratioP2;P2;SDS_P1;SDS_P2;PMS_P1;PMS_P2;Temp;Humidity;BMP_temperature;BMP_pressure;BME280_temperature;BME280_humidity;BME280_pressure;Samples;Min_cycle;Max_cycle;Signal;HPM_P1;HPM_P2
2022/12/20 00:01:51;;;;;;;42.10;19.88;;;;;;;;;;4978451;28;20074;-83
2022/12/20 00:04:17;;;;;;;45.97;19.65;;;;;;;;;;4977182;28;20042;-82
2022/12/20 00:06:43;;;;;;;46.72;21.02;;;;;;;;;;4979198;28;20031;-81
2022/12/20 00:09:09;;;;;;;40.40;19.35;;;;;;;;;;4979033;28;20489;-82
2022/12/20 00:11:37;;;;;;;40.22;17.88;;;;;;;;;;4979603;28;20030;-82
2022/12/20 00:14:03;;;;;;;41.53;19.35;;;;;;;;;;4978763;28;20022;-81
2022/12/20 00:16:30;;;;;;;45.28;20.27;;;;;;;;;;4970388;28;20557;-81
2022/12/20 00:18:57;;;;;;;45.30;20.35;;;;;;;;;;4976472;28;20079;-81
2022/12/20 00:21:23;;;;;;;47.05;19.90;;;;;;;;;;4977815;28;20034;-80
2022/12/20 00:23:49;;;;;;;50.05;20.85;;;;;;;;;;4978638;28;20027;-81
2022/12/20 00:26:16;;;;;;;47.47;19.38;;;;;;;;;;4979094;28;20509;-81
2022/12/20 00:28:42;;;;;;;47.70;22.48;;;;;;;;;;4977981;28;20540;-81
2022/12/20 00:31:09;;;;;;;46.78;20.67;;;;;;;;;;4973806;28;20155;-83
2022/12/20 00:33:36;;;;;;;47.45;19.70;;;;;;;;;;4977600;28;20027;-82
2022/12/20 00:36:03;;;;;;;41.53;19.75;;;;;;;;;;4978174;28;20374;-80
2022/12/20 00:38:29;;;;;;;49.90;20.33;;;;;;;;;;4973897;28;20027;-82
2022/12/20 00:40:59;;;;;;;43.42;19.67;;;;;;;;;;4977636;28;20024;-83
2022/12/20 00:43:25;;;;;;;32.67;16.63;;;;;;;;;;4978876;28;20539;-81
2022/12/20 00:45:51;;;;;;;47.88;19.17;;;;;;;;;;4960177;28;20035;-81
2022/12/20 00:48:17;;;;;;;37.67;18.23;;;;;;;;;;4978540;28;20031;-82
2022/12/20 00:50:43;;;;;;;45.17;17.40;;;;;;;;;;4966570;28;20050;-81
2022/12/20 00:53:11;;;;;;;44.42;21.48;;;;;;;;;;4976630;28;20568;-82
2022/12/20 00:55:44;;;;;;;45.90;19.33;;;;;;;;;;4978742;28;20026;-82
2022/12/20 00:58:11;;;;;;;44.60;17.67;;;;;;;;;;4978600;28;20037;-82
2022/12/20 01:00:38;;;;;;;43.15;17.65;;;;;;;;;;4979449;28;20058;-82
2022/12/20 01:03:04;;;;;;;41.75;18.50;;;;;;;;;;4977568;28;20031;-81
2022/12/20 01:05:31;;;;;;;47.13;20.45;;;;;;;;;;4976325;28;20035;-82
2022/12/20 01:07:57;;;;;;;46.38;18.92;;;;;;;;;;4978343;28;20029;-83
2022/12/20 01:10:23;;;;;;;49.92;19.80;;;;;;;;;;4971725;28;20031;-82
2022/12/20 01:12:49;;;;;;;45.95;17.75;;;;;;;;;;4985760;28;20019;-81
2022/12/20 01:15:15;;;;;;;43.15;18.25;;;;;;;;;;4979837;28;20268;-82
2022/12/20 01:17:41;;;;;;;37.42;16.77;;;;;;;;;;4974660;28;20035;-84
2022/12/20 01:20:08;;;;;;;41.55;17.60;;;;;;;;;;4979623;28;20023;-84
2022/12/20 01:22:34;;;;;;;43.58;19.13;;;;;;;;;;4980633;28;20121;-83
2022/12/20 01:25:00;;;;;;;43.92;20.80;;;;;;;;;;4978453;28;20481;-82
2022/12/20 01:27:27;;;;;;;43.03;22.02;;;;;;;;;;4978546;28;20030;-82
2022/12/20 01:29:54;;;;;;;55.20;24.17;;;;;;;;;;4971204;28;20032;-82
2022/12/20 01:32:20;;;;;;;40.67;19.00;;;;;;;;;;4969713;28;20453;-83
2022/12/20 01:34:46;;;;;;;57.88;21.23;;;;;;;;;;4978526;28;20023;-82
2022/12/20 01:37:12;;;;;;;46.63;19.88;;;;;;;;;;4977569;28;20401;-82
2022/12/20 01:39:38;;;;;;;43.35;19.90;;;;;;;;;;4978381;28;20026;-82
2022/12/20 01:42:04;;;;;;;46.83;20.52;;;;;;;;;;4976564;28;20062;-82
2022/12/20 01:44:30;;;;;;;47.60;20.88;;;;;;;;;;4976651;28;20086;-83
2022/12/20 01:46:56;;;;;;;53.63;18.60;;;;;;;;;;4977992;28;20034;-82
2022/12/20 01:49:34;;;;;;;41.95;19.35;;;;;;;;;;4977983;28;20169;-82
2022/12/20 01:52:07;;;;;;;45.70;20.65;;;;;;;;;;4977986;28;20030;-81
2022/12/20 01:54:36;;;;;;;48.35;20.60;;;;;;;;;;4975915;28;20031;-82
2022/12/20 01:57:04;;;;;;;55.97;21.08;;;;;;;;;;4977771;28;20492;-82
2022/12/20 01:59:32;;;;;;;39.53;19.75;;;;;;;;;;4977451;28;20482;-82
2022/12/20 02:01:59;;;;;;;39.50;19.58;;;;;;;;;;4977064;28;20433;-81
2022/12/20 02:04:25;;;;;;;47.55;19.50;;;;;;;;;;4975528;28;20026;-83
2022/12/20 02:06:51;;;;;;;47.85;19.75;;;;;;;;;;4971196;28;20516;-82
2022/12/20 02:09:17;;;;;;;41.00;18.42;;;;;;;;;;4966360;28;20026;-83
2022/12/20 02:11:43;;;;;;;51.60;21.90;;;;;;;;;;4966511;28;20031;-82
2022/12/20 02:14:28;;;;;;;38.50;19.10;;;;;;;;;;4970234;28;20497;-81
2022/12/20 02:17:09;;;;;;;40.75;18.30;;;;;;;;;;4976484;28;20030;-82
2022/12/20 02:20:05;;;;;;;40.42;19.13;;;;;;;;;;4967290;28;20031;-82
2022/12/20 02:22:44;;;;;;;45.30;19.73;;;;;;;;;;4965180;28;20039;-82
2022/12/20 02:25:16;;;;;;;49.97;20.90;;;;;;;;;;4996558;28;20099;-82
2022/12/20 02:27:50;;;;;;;53.20;19.67;;;;;;;;;;4994947;28;20026;-82
2022/12/20 02:30:18;;;;;;;41.17;19.95;;;;;;;;;;4996388;28;20278;-82
2022/12/20 02:32:48;;;;;;;47.40;18.52;;;;;;;;;;4996815;28;20049;-83
2022/12/20 02:35:18;;;;;;;46.25;20.60;;;;;;;;;;4977957;28;20019;-83
2022/12/20 02:37:52;;;;;;;51.22;21.08;;;;;;;;;;4976666;28;20058;-81
2022/12/20 02:40:23;;;;;;;43.10;17.52;;;;;;;;;;4977993;28;20094;-83
2022/12/20 02:42:51;;;;;;;47.67;21.15;;;;;;;;;;4976666;28;20031;-82
2022/12/20 02:45:19;;;;;;;43.85;21.48;;;;;;;;;;4978612;28;20118;-83
2022/12/20 02:47:55;;;;;;;44.85;19.98;;;;;;;;;;4977863;28;20163;-82
2022/12/20 02:50:23;;;;;;;47.20;19.05;;;;;;;;;;4977086;28;20019;-82
2022/12/20 02:52:50;;;;;;;39.63;19.25;;;;;;;;;;4977222;28;20030;-82
2022/12/20 02:55:16;;;;;;;46.38;21.52;;;;;;;;;;4978536;28;20027;-82
2022/12/20 02:57:51;;;;;;;40.60;18.58;;;;;;;;;;4976148;28;20034;-82
2022/12/20 03:00:19;;;;;;;44.22;18.15;;;;;;;;;;4972308;28;20027;-82
2022/12/20 03:05:32;;;;;;;48.53;18.52;;;;;;;;;;4999916;28;20033;-83
2022/12/20 03:07:58;;;;;;;52.63;19.52;;;;;;;;;;4999093;28;20046;-82
2022/12/20 03:10:25;;;;;;;47.53;17.92;;;;;;;;;;4995709;28;20024;-82
2022/12/20 03:12:51;;;;;;;49.42;21.55;;;;;;;;;;4985474;28;20436;-82
2022/12/20 03:15:17;;;;;;;49.35;19.13;;;;;;;;;;4989692;28;20033;-82
2022/12/20 03:17:43;;;;;;;48.42;19.67;;;;;;;;;;4987661;28;20046;-82
2022/12/20 03:20:12;;;;;;;43.70;17.80;;;;;;;;;;4983097;28;20448;-82
2022/12/20 03:22:38;;;;;;;42.00;20.17;;;;;;;;;;4988589;28;20030;-82
2022/12/20 03:25:05;;;;;;;41.42;18.20;;;;;;;;;;4985112;28;20058;-83
2022/12/20 03:27:31;;;;;;;44.10;18.63;;;;;;;;;;4979607;28;20038;-82
2022/12/20 03:29:57;;;;;;;36.10;16.75;;;;;;;;;;4980372;28;20122;-83
2022/12/20 03:32:23;;;;;;;38.53;17.20;;;;;;;;;;4980200;28;20982;-82
2022/12/20 03:34:49;;;;;;;29.25;15.23;;;;;;;;;;4978841;28;20034;-83
2022/12/20 03:37:15;;;;;;;38.15;16.42;;;;;;;;;;4979856;28;20030;-82
2022/12/20 03:39:41;;;;;;;37.85;16.90;;;;;;;;;;4980029;28;20086;-82
2022/12/20 03:42:07;;;;;;;35.15;16.58;;;;;;;;;;4980488;28;20055;-82
2022/12/20 03:44:33;;;;;;;38.13;15.25;;;;;;;;;;4979663;28;20019;-82
2022/12/20 03:46:59;;;;;;;30.38;14.10;;;;;;;;;;4978604;28;20122;-83
2022/12/20 03:49:26;;;;;;;33.58;15.40;;;;;;;;;;4973803;28;20023;-82
2022/12/20 03:51:52;;;;;;;31.98;16.38;;;;;;;;;;4980498;28;20050;-82
2022/12/20 03:54:18;;;;;;;39.15;16.38;;;;;;;;;;4978599;28;20162;-83
2022/12/20 03:56:44;;;;;;;33.88;14.95;;;;;;;;;;4980130;28;20027;-83
2022/12/20 03:59:10;;;;;;;39.50;19.80;;;;;;;;;;4979672;28;20110;-82
2022/12/20 04:01:37;;;;;;;40.88;16.58;;;;;;;;;;4980615;28;20058;-82
2022/12/20 04:04:03;;;;;;;36.65;16.98;;;;;;;;;;4980300;28;20026;-82
2022/12/20 04:06:30;;;;;;;35.30;13.75;;;;;;;;;;4981595;28;20106;-82
2022/12/20 04:08:56;;;;;;;31.90;14.90;;;;;;;;;;4982188;28;20106;-82
2022/12/20 04:11:22;;;;;;;36.20;15.32;;;;;;;;;;4978194;28;20026;-82
2022/12/20 04:13:52;;;;;;;34.75;14.27;;;;;;;;;;4978968;28;20050;-82
2022/12/20 04:16:22;;;;;;;32.00;15.15;;;;;;;;;;4978806;28;20031;-81
2022/12/20 04:18:48;;;;;;;44.80;20.20;;;;;;;;;;4979885;28;20031;-82
2022/12/20 04:21:14;;;;;;;33.15;14.70;;;;;;;;;;4979912;28;20030;-82
2022/12/20 04:23:41;;;;;;;31.55;16.02;;;;;;;;;;4979501;28;20035;-82
2022/12/20 04:26:08;;;;;;;35.78;16.33;;;;;;;;;;4979283;28;20042;-83
2022/12/20 04:28:34;;;;;;;29.75;15.13;;;;;;;;;;4977540;28;20023;-81
2022/12/20 04:31:00;;;;;;;35.13;14.80;;;;;;;;;;4979062;28;20023;-82
2022/12/20 04:33:27;;;;;;;35.05;16.23;;;;;;;;;;4978497;28;20382;-82
2022/12/20 04:35:54;;;;;;;34.25;14.95;;;;;;;;;;4979285;28;20065;-82
2022/12/20 04:38:21;;;;;;;31.55;14.45;;;;;;;;;;4979224;28;20105;-82
2022/12/20 04:40:50;;;;;;;31.50;15.00;;;;;;;;;;4978215;28;20022;-82
2022/12/20 04:43:17;;;;;;;38.03;15.13;;;;;;;;;;4980582;28;20145;-81
2022/12/20 04:45:43;;;;;;;36.65;14.48;;;;;;;;;;4980518;28;20027;-82
2022/12/20 04:48:09;;;;;;;37.78;15.57;;;;;;;;;;4983122;28;20089;-82
2022/12/20 04:50:35;;;;;;;38.55;17.17;;;;;;;;;;4979852;28;20033;-82
2022/12/20 04:55:46;;;;;;;42.20;17.10;;;;;;;;;;4978151;28;20069;-82
2022/12/20 04:58:12;;;;;;;38.38;14.52;;;;;;;;;;4978910;28;20026;-83
2022/12/20 05:00:38;;;;;;;38.53;15.18;;;;;;;;;;4978862;28;20505;-82
2022/12/20 05:03:04;;;;;;;36.33;17.15;;;;;;;;;;4980125;28;20116;-82
2022/12/20 05:05:30;;;;;;;33.50;15.07;;;;;;;;;;4977436;28;20035;-82
2022/12/20 05:07:56;;;;;;;32.05;17.38;;;;;;;;;;4966932;28;20027;-83
2022/12/20 05:10:22;;;;;;;31.60;16.08;;;;;;;;;;4978997;28;20054;-82
2022/12/20 05:12:48;;;;;;;40.42;16.10;;;;;;;;;;4979235;28;20532;-82
2022/12/20 05:15:14;;;;;;;36.03;15.77;;;;;;;;;;4977676;28;20027;-82
2022/12/20 05:17:40;;;;;;;33.38;15.32;;;;;;;;;;4983829;28;20033;-81
2022/12/20 05:20:06;;;;;;;37.28;16.40;;;;;;;;;;4983194;28;20090;-82
2022/12/20 05:28:02;;;;;;;39.03;15.18;;;;;;;;;;4978952;28;20098;-81
2022/12/20 05:30:28;;;;;;;35.75;16.33;;;;;;;;;;4978504;28;20027;-81
2022/12/20 05:32:55;;;;;;;37.33;17.02;;;;;;;;;;4972599;28;20071;-83
2022/12/20 05:35:21;;;;;;;37.30;16.10;;;;;;;;;;4978385;28;20019;-82
2022/12/20 05:37:47;;;;;;;45.00;18.42;;;;;;;;;;4972445;28;20066;-82
2022/12/20 05:40:13;;;;;;;32.50;16.00;;;;;;;;;;4972602;28;20030;-81
2022/12/20 05:42:39;;;;;;;34.75;15.57;;;;;;;;;;4973644;28;20039;-82
2022/12/20 05:45:05;;;;;;;34.47;15.70;;;;;;;;;;4971844;28;20038;-81
2022/12/20 05:47:32;;;;;;;34.80;17.30;;;;;;;;;;4976585;28;20085;-81
2022/12/20 05:50:02;;;;;;;43.95;18.00;;;;;;;;;;4975464;28;20023;-82
2022/12/20 05:52:29;;;;;;;35.30;15.43;;;;;;;;;;4973149;28;20157;-82
2022/12/20 05:54:55;;;;;;;37.40;17.13;;;;;;;;;;4973229;28;20485;-81
2022/12/20 05:57:21;;;;;;;41.95;16.30;;;;;;;;;;4973395;28;20024;-82
2022/12/20 05:59:47;;;;;;;39.00;16.58;;;;;;;;;;4972235;28;20034;-81
2022/12/20 06:02:13;;;;;;;42.05;17.10;;;;;;;;;;4973815;28;20030;-81
2022/12/20 06:04:39;;;;;;;37.38;14.65;;;;;;;;;;4977457;28;20031;-81
2022/12/20 06:07:05;;;;;;;40.25;16.02;;;;;;;;;;4975083;28;20508;-82
2022/12/20 06:09:32;;;;;;;35.88;19.17;;;;;;;;;;4977132;28;20027;-82
2022/12/20 06:11:58;;;;;;;36.53;17.40;;;;;;;;;;4978470;28;20037;-81
2022/12/20 06:14:25;;;;;;;42.22;17.58;;;;;;;;;;4976041;28;20027;-82
2022/12/20 06:16:52;;;;;;;39.78;17.83;;;;;;;;;;4974285;28;20037;-83
2022/12/20 06:19:18;;;;;;;40.92;16.63;;;;;;;;;;4979818;28;20057;-82
2022/12/20 06:21:44;;;;;;;44.78;19.85;;;;;;;;;;4978630;28;20023;-81
2022/12/20 06:24:10;;;;;;;37.95;16.42;;;;;;;;;;4978154;28;20397;-80
2022/12/20 06:26:36;;;;;;;39.47;16.20;;;;;;;;;;4972535;28;20054;-82
2022/12/20 06:29:07;;;;;;;38.95;16.95;;;;;;;;;;4972442;28;20046;-81
2022/12/20 06:31:34;;;;;;;39.70;15.82;;;;;;;;;;4977507;28;20414;-81
2022/12/20 06:34:00;;;;;;;37.53;17.55;;;;;;;;;;4976975;28;20027;-82
2022/12/20 06:36:26;;;;;;;47.65;18.92;;;;;;;;;;4982816;28;20031;-82
2022/12/20 06:38:52;;;;;;;44.65;18.83;;;;;;;;;;4985936;28;20396;-83
2022/12/20 06:41:19;;;;;;;42.10;18.30;;;;;;;;;;4977506;28;20026;-83
2022/12/20 06:43:45;;;;;;;41.55;16.98;;;;;;;;;;4965642;28;20027;-84
2022/12/20 06:46:11;;;;;;;47.88;19.80;;;;;;;;;;4981329;28;20211;-83
2022/12/20 06:48:37;;;;;;;36.67;17.00;;;;;;;;;;4981252;28;20062;-83
2022/12/20 06:51:03;;;;;;;39.47;17.33;;;;;;;;;;4981740;28;20468;-83
2022/12/20 06:53:29;;;;;;;42.70;18.58;;;;;;;;;;4981377;28;20058;-83
2022/12/20 06:55:55;;;;;;;37.80;18.30;;;;;;;;;;4980919;28;20027;-83
2022/12/20 06:58:21;;;;;;;40.20;17.42;;;;;;;;;;4979975;28;20134;-83
2022/12/20 07:00:47;;;;;;;40.75;18.40;;;;;;;;;;4980999;28;20039;-82
2022/12/20 07:03:13;;;;;;;46.80;19.58;;;;;;;;;;4981646;28;20027;-84
2022/12/20 07:05:39;;;;;;;45.22;18.38;;;;;;;;;;4980978;28;20031;-83
2022/12/20 07:08:06;;;;;;;52.40;19.05;;;;;;;;;;4982150;28;20031;-83
2022/12/20 07:10:36;;;;;;;44.05;19.58;;;;;;;;;;4982900;28;20030;-83
2022/12/20 07:13:02;;;;;;;40.40;17.65;;;;;;;;;;4984674;28;20031;-83
2022/12/20 07:15:28;;;;;;;41.00;17.58;;;;;;;;;;4986831;28;20073;-83
2022/12/20 07:17:54;;;;;;;44.03;19.25;;;;;;;;;;4981992;28;20036;-79
2022/12/20 07:20:20;;;;;;;42.70;16.40;;;;;;;;;;4980962;28;20027;-80
2022/12/20 07:22:49;;;;;;;36.40;16.20;;;;;;;;;;4982060;28;20045;-81
2022/12/20 07:25:15;;;;;;;47.20;20.15;;;;;;;;;;4981824;28;20074;-81
2022/12/20 07:27:41;;;;;;;41.42;16.75;;;;;;;;;;4981778;28;20481;-81
2022/12/20 07:30:07;;;;;;;39.80;18.55;;;;;;;;;;4981657;28;20049;-82
2022/12/20 07:32:33;;;;;;;41.75;17.10;;;;;;;;;;4980631;28;20027;-82
2022/12/20 07:35:00;;;;;;;44.92;17.83;;;;;;;;;;4980568;28;20209;-81
2022/12/20 07:37:27;;;;;;;43.58;19.33;;;;;;;;;;4980231;28;20401;-82
2022/12/20 07:39:53;;;;;;;41.63;20.15;;;;;;;;;;4981460;28;20058;-81
2022/12/20 07:42:19;;;;;;;41.25;17.38;;;;;;;;;;4981167;28;20035;-81
2022/12/20 07:44:46;;;;;;;35.08;15.75;;;;;;;;;;4981186;28;20494;-80
2022/12/20 07:47:12;;;;;;;41.60;17.83;;;;;;;;;;4981644;28;20045;-82
2022/12/20 07:49:38;;;;;;;39.95;18.13;;;;;;;;;;4983076;28;20031;-81
2022/12/20 07:52:05;;;;;;;41.97;17.17;;;;;;;;;;4983004;28;20445;-81
2022/12/20 07:54:33;;;;;;;39.42;17.83;;;;;;;;;;4980000;28;20027;-81
2022/12/20 07:57:03;;;;;;;45.78;17.13;;;;;;;;;;4980883;28;20097;-80
2022/12/20 07:59:38;;;;;;;47.45;17.27;;;;;;;;;;4962830;29;20024;-80
2022/12/20 08:02:04;;;;;;;38.58;18.15;;;;;;;;;;4959848;28;20450;-81
2022/12/20 08:04:31;;;;;;;39.38;17.05;;;;;;;;;;4981300;28;20118;-80
2022/12/20 08:06:58;;;;;;;38.40;17.98;;;;;;;;;;4979532;28;20023;-81
2022/12/20 08:09:25;;;;;;;52.13;19.20;;;;;;;;;;4978616;28;20078;-81
2022/12/20 08:11:52;;;;;;;47.75;20.10;;;;;;;;;;4980507;28;20066;-82
2022/12/20 08:14:18;;;;;;;41.15;16.20;;;;;;;;;;4980664;28;20019;-81
2022/12/20 08:16:45;;;;;;;41.60;15.63;;;;;;;;;;4978833;28;20038;-81
2022/12/20 08:19:11;;;;;;;30.67;16.35;;;;;;;;;;4979363;28;20026;-81
2022/12/20 08:21:37;;;;;;;40.03;17.75;;;;;;;;;;4980568;28;20027;-82
2022/12/20 08:24:03;;;;;;;37.30;16.27;;;;;;;;;;4988940;28;20504;-80
2022/12/20 08:26:29;;;;;;;37.60;15.88;;;;;;;;;;4979473;28;20034;-80
2022/12/20 08:28:55;;;;;;;40.20;16.85;;;;;;;;;;4979885;28;20059;-80
2022/12/20 08:31:22;;;;;;;43.20;16.00;;;;;;;;;;4980470;28;20485;-80
2022/12/20 08:33:48;;;;;;;35.95;16.77;;;;;;;;;;4980684;28;20050;-80
2022/12/20 08:36:14;;;;;;;41.55;16.10;;;;;;;;;;4982653;28;20038;-81
2022/12/20 08:38:40;;;;;;;34.80;15.90;;;;;;;;;;4976384;28;20042;-81
2022/12/20 08:41:11;;;;;;;33.47;13.10;;;;;;;;;;4979885;28;20035;-80
2022/12/20 08:43:37;;;;;;;36.00;14.27;;;;;;;;;;4980308;28;20033;-81
2022/12/20 08:46:05;;;;;;;41.20;15.13;;;;;;;;;;4978769;28;20058;-81
2022/12/20 08:48:31;;;;;;;39.53;16.00;;;;;;;;;;4977338;28;20421;-80
2022/12/20 08:51:00;;;;;;;36.33;15.43;;;;;;;;;;4980087;28;20034;-82
2022/12/20 08:53:26;;;;;;;34.35;17.00;;;;;;;;;;4979163;28;20110;-83
2022/12/20 08:55:52;;;;;;;44.03;17.70;;;;;;;;;;4978438;28;20046;-82
2022/12/20 08:58:20;;;;;;;37.80;16.20;;;;;;;;;;4977664;28;20034;-83
2022/12/20 09:00:46;;;;;;;30.80;15.20;;;;;;;;;;4979882;28;20074;-83
2022/12/20 09:03:12;;;;;;;41.83;17.58;;;;;;;;;;4978052;28;20030;-83
2022/12/20 09:05:48;;;;;;;36.88;15.68;;;;;;;;;;4979606;28;20030;-81
2022/12/20 09:08:17;;;;;;;39.97;17.42;;;;;;;;;;4978540;28;20081;-82
2022/12/20 09:10:43;;;;;;;34.33;15.55;;;;;;;;;;4985795;28;20030;-79
2022/12/20 09:13:10;;;;;;;42.67;15.73;;;;;;;;;;4982374;28;20030;-81
2022/12/20 09:15:36;;;;;;;46.47;18.63;;;;;;;;;;4977679;28;20077;-80
2022/12/20 09:18:03;;;;;;;35.83;15.55;;;;;;;;;;4978710;28;20382;-81
2022/12/20 09:20:29;;;;;;;36.38;15.13;;;;;;;;;;4979043;28;20035;-81
2022/12/20 09:22:56;;;;;;;37.65;17.00;;;;;;;;;;4989729;28;20019;-79
2022/12/20 09:25:22;;;;;;;39.05;18.60;;;;;;;;;;4993504;28;20054;-81
2022/12/20 09:27:48;;;;;;;42.88;16.27;;;;;;;;;;4993284;28;20111;-81
2022/12/20 09:30:14;;;;;;;40.10;17.90;;;;;;;;;;4996031;28;20072;-83
2022/12/20 09:32:40;;;;;;;31.52;14.23;;;;;;;;;;4992417;28;20031;-83
2022/12/20 09:35:06;;;;;;;35.88;15.40;;;;;;;;;;4978123;28;20022;-84
2022/12/20 09:37:32;;;;;;;38.63;17.52;;;;;;;;;;4977593;28;20027;-83
2022/12/20 09:39:59;;;;;;;38.30;14.38;;;;;;;;;;4978484;28;20030;-83
2022/12/20 09:42:26;;;;;;;40.60;15.95;;;;;;;;;;4979395;28;20470;-79
2022/12/20 09:44:56;;;;;;;38.33;16.25;;;;;;;;;;4978734;28;20045;-82
2022/12/20 09:47:24;;;;;;;36.85;17.42;;;;;;;;;;4974880;28;20042;-83
2022/12/20 09:49:53;;;;;;;37.60;14.60;;;;;;;;;;4975844;28;20046;-80
2022/12/20 09:52:34;;;;;;;37.17;16.92;;;;;;;;;;4976008;28;20027;-80
2022/12/20 09:55:00;;;;;;;41.63;16.83;;;;;;;;;;4987672;28;20003;-78
2022/12/20 09:57:26;;;;;;;36.85;15.85;;;;;;;;;;4990829;28;20085;-80
2022/12/20 09:59:55;;;;;;;42.30;17.55;;;;;;;;;;4987697;28;20039;-80
2022/12/20 10:02:22;;;;;;;46.85;17.88;;;;;;;;;;4991928;28;20397;-79
2022/12/20 10:04:49;;;;;;;36.65;17.00;;;;;;;;;;4977937;28;20399;-81
2022/12/20 10:07:32;;;;;;;46.97;21.08;;;;;;;;;;4967559;28;20063;-81
2022/12/20 10:10:05;;;;;;;51.88;17.75;;;;;;;;;;4977395;28;20114;-81
2022/12/20 10:12:40;;;;;;;42.45;18.15;;;;;;;;;;4979592;28;20089;-82
2022/12/20 10:15:18;;;;;;;42.90;17.48;;;;;;;;;;4968711;28;20023;-81
2022/12/20 10:18:11;;;;;;;44.85;17.25;;;;;;;;;;4977324;28;20031;-80
2022/12/20 10:20:37;;;;;;;37.63;16.13;;;;;;;;;;4977157;28;20440;-80
2022/12/20 10:23:07;;;;;;;41.97;17.15;;;;;;;;;;4974672;28;20042;-81
2022/12/20 10:25:33;;;;;;;38.15;16.48;;;;;;;;;;4977320;28;20054;-80
2022/12/20 10:28:10;;;;;;;39.63;17.23;;;;;;;;;;4974959;28;20508;-81
2022/12/20 10:30:36;;;;;;;47.75;21.02;;;;;;;;;;4960795;28;20023;-80
2022/12/20 10:33:02;;;;;;;40.33;18.80;;;;;;;;;;4970593;28;20118;-81
2022/12/20 10:35:39;;;;;;;43.05;17.42;;;;;;;;;;4974934;28;20030;-80
2022/12/20 10:38:17;;;;;;;39.75;16.90;;;;;;;;;;4979578;28;20027;-81
2022/12/20 10:40:44;;;;;;;38.78;15.20;;;;;;;;;;4977534;28;20023;-82
2022/12/20 10:43:16;;;;;;;40.40;16.80;;;;;;;;;;4976695;28;20026;-82
2022/12/20 10:45:42;;;;;;;42.83;17.20;;;;;;;;;;4976566;28;20156;-80
2022/12/20 10:48:27;;;;;;;38.17;16.92;;;;;;;;;;4976196;28;20057;-81
2022/12/20 10:50:57;;;;;;;41.08;17.08;;;;;;;;;;4975943;28;20066;-80
2022/12/20 10:53:24;;;;;;;38.10;16.48;;;;;;;;;;4978406;28;20023;-83
2022/12/20 10:55:51;;;;;;;44.55;17.25;;;;;;;;;;4978030;28;20023;-80
2022/12/20 10:58:26;;;;;;;36.85;17.67;;;;;;;;;;4975316;28;20138;-80
2022/12/20 11:01:03;;;;;;;37.28;16.13;;;;;;;;;;4976592;28;20520;-82
2022/12/20 11:03:29;;;;;;;37.22;16.95;;;;;;;;;;4975403;28;20037;-80
2022/12/20 11:06:02;;;;;;;38.88;18.60;;;;;;;;;;4976915;28;20046;-81
2022/12/20 11:08:29;;;;;;;42.33;16.40;;;;;;;;;;4981650;28;20022;-80
2022/12/20 11:11:15;;;;;;;46.42;18.05;;;;;;;;;;4978738;28;20015;-83
2022/12/20 11:13:41;;;;;;;46.10;20.90;;;;;;;;;;4976119;28;20046;-80
2022/12/20 11:16:22;;;;;;;43.53;18.00;;;;;;;;;;4974319;28;20350;-81
2022/12/20 11:18:56;;;;;;;47.20;18.13;;;;;;;;;;4957661;28;20030;-82
2022/12/20 11:21:41;;;;;;;40.35;16.23;;;;;;;;;;4976665;28;20085;-80
2022/12/20 11:24:14;;;;;;;48.50;19.73;;;;;;;;;;4979222;28;20096;-80
2022/12/20 11:26:44;;;;;;;46.80;18.58;;;;;;;;;;4979584;28;20058;-80
2022/12/20 11:29:29;;;;;;;53.13;20.38;;;;;;;;;;4979067;28;20413;-81
2022/12/20 11:32:15;;;;;;;41.30;18.13;;;;;;;;;;4979421;28;20050;-80
2022/12/20 11:34:44;;;;;;;40.50;16.42;;;;;;;;;;4973912;28;20019;-80
2022/12/20 11:37:10;;;;;;;54.70;19.15;;;;;;;;;;4979307;28;20085;-80
2022/12/20 11:39:39;;;;;;;43.05;18.23;;;;;;;;;;4978606;28;20054;-82
2022/12/20 11:42:08;;;;;;;47.05;17.73;;;;;;;;;;4972549;28;20555;-80
2022/12/20 11:45:00;;;;;;;36.15;15.00;;;;;;;;;;4980114;28;20690;-79
2022/12/20 11:47:49;;;;;;;45.72;18.33;;;;;;;;;;4899435;29;20047;-80
2022/12/20 11:50:34;;;;;;;48.17;19.95;;;;;;;;;;4880455;29;20547;-81
2022/12/20 11:53:04;;;;;;;36.53;16.35;;;;;;;;;;4907840;29;20572;-81
2022/12/20 11:55:33;;;;;;;45.28;17.27;;;;;;;;;;4913653;29;20044;-79
2022/12/20 11:58:05;;;;;;;40.25;17.20;;;;;;;;;;4905284;29;20126;-81
2022/12/20 12:00:34;;;;;;;29.30;16.27;;;;;;;;;;4899568;29;20037;-83
2022/12/20 12:03:21;;;;;;;40.35;19.08;;;;;;;;;;4901015;29;20068;-81
2022/12/20 12:05:50;;;;;;;39.40;16.85;;;;;;;;;;4899262;29;20040;-80
2022/12/20 12:08:19;;;;;;;36.88;15.75;;;;;;;;;;4900312;29;20490;-83
2022/12/20 12:10:57;;;;;;;46.22;17.67;;;;;;;;;;4884353;29;20131;-81
2022/12/20 12:13:26;;;;;;;39.78;17.98;;;;;;;;;;4884653;29;20025;-80
2022/12/20 12:16:01;;;;;;;39.25;18.48;;;;;;;;;;4900628;29;20054;-81
2022/12/20 12:18:28;;;;;;;37.58;16.50;;;;;;;;;;4899755;29;20088;-82
2022/12/20 12:20:57;;;;;;;49.72;18.58;;;;;;;;;;4883772;29;20032;-81
2022/12/20 12:23:46;;;;;;;45.10;18.13;;;;;;;;;;4909730;28;20044;-82
2022/12/20 12:26:33;;;;;;;47.95;16.98;;;;;;;;;;4955771;28;20047;-80
2022/12/20 12:29:01;;;;;;;46.40;18.30;;;;;;;;;;4977987;28;20089;-82
2022/12/20 12:31:30;;;;;;;43.55;19.98;;;;;;;;;;4971838;28;20054;-81
2022/12/20 12:34:06;;;;;;;40.42;18.77;;;;;;;;;;4976465;28;20444;-80
2022/12/20 12:36:53;;;;;;;41.65;18.27;;;;;;;;;;4979539;28;20034;-82
2022/12/20 12:39:29;;;;;;;46.55;21.13;;;;;;;;;;4944798;28;20520;-82
2022/12/20 12:42:06;;;;;;;51.70;18.00;;;;;;;;;;4975097;28;20026;-81
2022/12/20 12:44:32;;;;;;;43.35;18.15;;;;;;;;;;4961361;28;20035;-80
2022/12/20 12:47:00;;;;;;;50.72;20.15;;;;;;;;;;4960354;28;20031;-80
2022/12/20 12:49:27;;;;;;;50.83;20.88;;;;;;;;;;4960935;28;20030;-81
2022/12/20 12:51:55;;;;;;;52.72;20.05;;;;;;;;;;4975946;28;20448;-81
2022/12/20 12:54:25;;;;;;;53.85;22.98;;;;;;;;;;4975899;28;20026;-81
2022/12/20 12:56:54;;;;;;;55.28;18.65;;;;;;;;;;4977410;28;20474;-81
2022/12/20 12:59:32;;;;;;;43.05;19.52;;;;;;;;;;4971916;28;20074;-81
2022/12/20 13:02:02;;;;;;;45.58;19.10;;;;;;;;;;4974645;28;20023;-80
2022/12/20 13:04:30;;;;;;;53.08;21.13;;;;;;;;;;4984063;28;20446;-81
2022/12/20 13:06:56;;;;;;;53.83;19.15;;;;;;;;;;4978858;28;20062;-81
2022/12/20 13:09:25;;;;;;;42.22;22.65;;;;;;;;;;4977467;28;20027;-80
2022/12/20 13:11:52;;;;;;;50.83;18.20;;;;;;;;;;4976834;28;20027;-82
2022/12/20 13:14:18;;;;;;;52.28;20.83;;;;;;;;;;4978321;28;20104;-80
2022/12/20 13:16:44;;;;;;;55.95;23.23;;;;;;;;;;4976137;28;20015;-79
2022/12/20 13:19:17;;;;;;;53.35;20.50;;;;;;;;;;4977914;28;20030;-80
2022/12/20 13:21:46;;;;;;;61.50;21.65;;;;;;;;;;4977385;28;20121;-80
2022/12/20 13:24:30;;;;;;;61.75;23.13;;;;;;;;;;4977459;28;20037;-79
2022/12/20 13:26:57;;;;;;;59.78;20.70;;;;;;;;;;4976240;28;20133;-80
2022/12/20 13:29:27;;;;;;;53.95;18.80;;;;;;;;;;4977072;28;20026;-80
2022/12/20 13:31:54;;;;;;;58.85;21.65;;;;;;;;;;4977657;28;20062;-81
2022/12/20 13:34:38;;;;;;;45.22;18.27;;;;;;;;;;4977946;28;20085;-80
2022/12/20 13:37:24;;;;;;;55.08;20.77;;;;;;;;;;4976863;28;20045;-79
2022/12/20 13:39:50;;;;;;;48.53;18.52;;;;;;;;;;4976566;28;20565;-81
2022/12/20 13:42:37;;;;;;;59.53;20.58;;;;;;;;;;4973228;28;20042;-80
2022/12/20 13:45:04;;;;;;;39.95;18.75;;;;;;;;;;4969310;28;20043;-80
2022/12/20 13:47:30;;;;;;;47.60;21.30;;;;;;;;;;4970057;28;20022;-82
2022/12/20 13:49:59;;;;;;;50.05;19.17;;;;;;;;;;4979700;28;20109;-80
2022/12/20 13:52:25;;;;;;;55.50;21.98;;;;;;;;;;4977588;28;20071;-81
2022/12/20 13:54:53;;;;;;;49.25;19.85;;;;;;;;;;4978044;28;20030;-80
2022/12/20 13:57:30;;;;;;;47.17;20.85;;;;;;;;;;4979880;28;20057;-81
2022/12/20 13:59:58;;;;;;;50.85;20.25;;;;;;;;;;4973105;28;20106;-81
2022/12/20 14:02:27;;;;;;;47.15;18.88;;;;;;;;;;4975414;28;20023;-80
2022/12/20 14:04:57;;;;;;;58.58;20.85;;;;;;;;;;4977355;28;20041;-80
2022/12/20 14:07:24;;;;;;;42.97;17.58;;;;;;;;;;4973785;28;20027;-80
2022/12/20 14:09:56;;;;;;;45.28;17.80;;;;;;;;;;4973488;28;20027;-81
2022/12/20 14:12:22;;;;;;;48.88;19.95;;;;;;;;;;4972236;28;20034;-80
2022/12/20 14:14:50;;;;;;;52.25;18.15;;;;;;;;;;4974174;28;20046;-79
2022/12/20 14:17:16;;;;;;;45.75;18.30;;;;;;;;;;4978326;28;20336;-80
2022/12/20 14:19:42;;;;;;;39.42;16.63;;;;;;;;;;4977869;28;20023;-82
2022/12/20 14:22:11;;;;;;;48.50;20.65;;;;;;;;;;4977623;28;20041;-81
2022/12/20 14:24:39;;;;;;;49.58;21.17;;;;;;;;;;4976936;28;20042;-80
2022/12/20 14:27:05;;;;;;;44.28;17.70;;;;;;;;;;4976427;28;20137;-80
2022/12/20 14:29:31;;;;;;;49.60;19.50;;;;;;;;;;4969406;28;20016;-81
2022/12/20 14:31:57;;;;;;;44.53;18.45;;;;;;;;;;4970815;28;20037;-81
2022/12/20 14:34:28;;;;;;;58.20;22.50;;;;;;;;;;4978359;28;20033;-80
2022/12/20 14:37:14;;;;;;;51.85;20.33;;;;;;;;;;4974565;28;20024;-79